Time;durP1;ratioP1;P1;durP2;ratioP2;P2;SDS_P1;SDS_P2;PMS_P1;PMS_P2;Temp;Humidity;BMP_temperature;BMP_pressure;BME280_temperature;BME280_humidity;BME280_pressure;Samples;Min_cycle;Max_cycle;Signal;HPM_P1;HPM_P2
2023/08/12 00:02:48;;;;;;;5.47;3.20;;;;;15.40;97595.00;;;;5043102;28;20220;-66
2023/08/12 00:05:39;;;;;;;3.90;3.43;;;;;15.70;97590.00;;;;5045768;28;20208;-66
2023/08/12 00:08:28;;;;;;;5.93;3.40;;;;;15.70;97593.00;;;;5044151;28;20223;-67
2023/08/12 00:11:17;;;;;;;3.40;3.10;;;;;15.50;97587.00;;;;5048344;28;20208;-67
2023/08/12 00:14:07;;;;;;;4.40;3.17;;;;;15.50;97587.00;;;;5062845;22;20276;-68
2023/08/12 00:16:56;;;;;;;3.37;3.07;;;;;15.60;97594.00;;;;5027992;28;20197;-67
2023/08/12 00:19:46;;;;;;;4.07;3.67;;;;;15.30;97581.00;;;;5029665;28;20240;-66
2023/08/12 00:22:35;;;;;;;5.97;3.77;;;;;15.10;97584.00;;;;5030013;28;20225;-66
2023/08/12 00:25:24;;;;;;;4.17;3.50;;;;;15.10;97583.00;;;;5024694;28;20615;-67
2023/08/12 00:28:13;;;;;;;5.23;3.00;;;;;15.20;97580.00;;;;5024221;28;20204;-67
2023/08/12 00:31:02;;;;;;;4.47;3.53;;;;;15.20;97577.00;;;;5029892;28;20589;-66
2023/08/12 00:33:51;;;;;;;4.63;3.83;;;;;15.10;97578.00;;;;5030294;28;20242;-66
2023/08/12 00:36:42;;;;;;;3.47;3.17;;;;;14.90;97575.00;;;;5028166;28;20205;-66
2023/08/12 00:39:31;;;;;;;5.27;3.47;;;;;14.70;97567.00;;;;5030171;28;20209;-67
2023/08/12 00:42:20;;;;;;;4.07;3.43;;;;;14.90;97562.00;;;;5030152;28;20224;-67
2023/08/12 00:45:12;;;;;;;4.13;3.43;;;;;14.80;97569.00;;;;5022248;28;20622;-67
2023/08/12 00:48:02;;;;;;;3.60;3.30;;;;;14.70;97559.00;;;;5030062;28;20201;-66
2023/08/12 00:50:52;;;;;;;4.77;3.40;;;;;14.50;97558.00;;;;5029523;28;20268;-66
2023/08/12 00:53:42;;;;;;;3.30;3.00;;;;;14.60;97559.00;;;;5030003;28;20213;-66
2023/08/12 00:56:32;;;;;;;4.20;3.80;;;;;14.50;97557.00;;;;5024257;28;20204;-67
2023/08/12 00:59:22;;;;;;;7.20;3.97;;;;;14.60;97548.00;;;;5029572;28;20656;-66
2023/08/12 01:02:11;;;;;;;3.57;3.27;;;;;14.60;97542.00;;;;5029922;28;20197;-67
2023/08/12 01:05:00;;;;;;;6.00;3.83;;;;;14.30;97540.00;;;;5029716;28;20731;-66
2023/08/12 01:07:49;;;;;;;5.50;4.23;;;;;14.10;97541.00;;;;5025576;28;20205;-67
2023/08/12 01:10:44;;;;;;;5.87;3.87;;;;;14.40;97542.00;;;;5026125;28;20584;-67
2023/08/12 01:13:39;;;;;;;4.93;3.63;;;;;14.10;97537.00;;;;5023988;28;20583;-67
2023/08/12 01:16:31;;;;;;;3.97;3.57;;;;;14.40;97542.00;;;;5028502;28;20209;-65
2023/08/12 01:19:30;;;;;;;6.37;4.17;;;;;14.30;97537.00;;;;5025266;28;20568;-67
2023/08/12 01:22:22;;;;;;;3.53;3.23;;;;;14.40;97537.00;;;;5023158;28;20201;-67
2023/08/12 01:25:12;;;;;;;5.00;4.50;;;;;14.80;97540.00;;;;5020921;28;20225;-65
2023/08/12 01:28:01;;;;;;;4.63;3.20;;;;;14.80;97538.00;;;;5023621;28;20209;-66
2023/08/12 01:31:01;;;;;;;4.57;3.70;;;;;14.70;97538.00;;;;5026162;28;20228;-67
2023/08/12 01:33:55;;;;;;;5.23;3.80;;;;;14.30;97534.00;;;;5029296;28;20335;-67
2023/08/12 01:36:47;;;;;;;8.03;4.07;;;;;14.30;97533.00;;;;5029086;28;20212;-66
2023/08/12 01:39:37;;;;;;;7.63;3.80;;;;;14.00;97530.00;;;;5024252;28;20205;-67
2023/08/12 01:42:28;;;;;;;3.77;3.37;;;;;14.00;97545.00;;;;5022942;28;20209;-67
2023/08/12 01:45:17;;;;;;;3.67;3.30;;;;;13.60;97542.00;;;;5028932;28;20225;-66
2023/08/12 01:48:07;;;;;;;9.70;4.27;;;;;13.80;97535.00;;;;5027856;28;20222;-66
2023/08/12 01:50:56;;;;;;;4.17;3.77;;;;;13.90;97546.00;;;;5029428;28;20212;-66
2023/08/12 01:53:45;;;;;;;5.37;3.70;;;;;14.00;97544.00;;;;5029503;28;20225;-67
2023/08/12 01:56:34;;;;;;;3.60;3.30;;;;;13.80;97529.00;;;;5023945;28;20210;-66
2023/08/12 01:59:24;;;;;;;3.40;3.10;;;;;13.80;97536.00;;;;5028826;28;20196;-66
2023/08/12 02:02:13;;;;;;;7.87;4.00;;;;;13.90;97536.00;;;;5020554;28;20194;-66
2023/08/12 02:05:03;;;;;;;4.20;3.80;;;;;14.20;97538.00;;;;5028452;28;20229;-65
2023/08/12 02:07:51;;;;;;;6.43;3.70;;;;;14.20;97543.00;;;;5028716;28;20205;-65
2023/08/12 02:10:41;;;;;;;4.37;3.83;;;;;14.10;97539.00;;;;5028355;28;20205;-66
2023/08/12 02:13:30;;;;;;;4.53;4.13;;;;;13.90;97538.00;;;;5028058;28;20225;-66
2023/08/12 02:16:20;;;;;;;5.37;3.47;;;;;13.70;97534.00;;;;5029355;28;20205;-66
2023/08/12 02:19:10;;;;;;;4.63;4.20;;;;;13.70;97544.00;;;;5027978;28;20669;-67
2023/08/12 02:21:59;;;;;;;6.20;3.90;;;;;13.80;97538.00;;;;5028551;28;20209;-67
2023/08/12 02:24:47;;;;;;;5.17;4.67;;;;;14.30;97533.00;;;;5029189;28;20240;-67
2023/08/12 02:27:37;;;;;;;5.50;4.20;;;;;14.40;97529.00;;;;5024819;28;20736;-67
2023/08/12 02:30:26;;;;;;;4.53;4.07;;;;;14.50;97538.00;;;;5021997;28;20198;-67
2023/08/12 02:33:16;;;;;;;4.87;3.83;;;;;14.30;97533.00;;;;5028247;28;20198;-67
2023/08/12 02:36:06;;;;;;;5.73;4.03;;;;;14.20;97533.00;;;;5029353;28;20217;-66
2023/08/12 02:38:55;;;;;;;4.17;3.77;;;;;14.10;97529.00;;;;5027812;28;20212;-67
2023/08/12 02:41:44;;;;;;;5.83;4.00;;;;;13.90;97525.00;;;;5029265;28;20197;-67
2023/08/12 02:44:33;;;;;;;5.10;3.80;;;;;13.90;97526.00;;;;5022803;28;20232;-67
2023/08/12 02:47:22;;;;;;;5.22;4.72;;;;;14.10;97530.00;;;;5028093;28;20388;-67
2023/08/12 02:50:12;;;;;;;4.20;3.77;;;;;14.40;97524.00;;;;5019621;28;20213;-67
2023/08/12 02:53:01;;;;;;;3.83;3.50;;;;;14.40;97518.00;;;;5023384;28;20212;-66
2023/08/12 02:55:51;;;;;;;6.73;4.03;;;;;14.20;97527.00;;;;5027459;28;20209;-66
2023/08/12 02:58:40;;;;;;;5.47;3.63;;;;;13.90;97524.00;;;;5027675;28;20212;-67
2023/08/12 03:01:29;;;;;;;3.87;3.50;;;;;13.80;97529.00;;;;5028967;28;20215;-66
2023/08/12 03:04:19;;;;;;;5.20;3.47;;;;;13.60;97526.00;;;;5028400;28;20229;-67
2023/08/12 03:07:09;;;;;;;6.37;4.00;;;;;13.50;97529.00;;;;5027100;28;20667;-67
2023/08/12 03:09:58;;;;;;;4.37;3.97;;;;;13.60;97526.00;;;;5028048;28;20266;-67
2023/08/12 03:12:47;;;;;;;4.40;4.00;;;;;13.80;97516.00;;;;5028552;28;20275;-67
2023/08/12 03:15:39;;;;;;;4.57;3.67;;;;;13.70;97516.00;;;;5028050;28;20201;-67
2023/08/12 03:18:28;;;;;;;4.40;3.77;;;;;13.70;97521.00;;;;5023027;28;20614;-67
2023/08/12 03:21:17;;;;;;;8.83;3.40;;;;;13.90;97531.00;;;;5028800;28;20204;-67
2023/08/12 03:24:08;;;;;;;5.20;3.77;;;;;13.80;97523.00;;;;5031526;28;20225;-67
2023/08/12 03:26:57;;;;;;;9.60;4.10;;;;;13.50;97519.00;;;;5032159;28;20205;-66
2023/08/12 03:29:46;;;;;;;3.33;3.03;;;;;13.20;97523.00;;;;5028958;28;20205;-66
2023/08/12 03:32:35;;;;;;;5.33;3.87;;;;;13.60;97524.00;;;;5021856;28;20218;-66
2023/08/12 03:35:24;;;;;;;3.50;3.27;;;;;13.50;97528.00;;;;5027501;28;20220;-66
2023/08/12 03:38:13;;;;;;;5.20;4.70;;;;;13.50;97526.00;;;;5023731;28;20208;-66
2023/08/12 03:41:03;;;;;;;5.77;4.43;;;;;13.80;97512.00;;;;5031260;28;20213;-65
2023/08/12 03:43:52;;;;;;;4.20;3.80;;;;;13.70;97510.00;;;;5031676;28;20225;-67
2023/08/12 03:46:42;;;;;;;4.37;3.67;;;;;13.40;97517.00;;;;5031125;28;20231;-67
2023/08/12 03:49:31;;;;;;;4.77;3.77;;;;;13.20;97511.00;;;;5028833;28;20580;-66
2023/08/12 03:52:20;;;;;;;12.17;3.93;;;;;13.00;97510.00;;;;5024204;28;20260;-65
2023/08/12 03:55:09;;;;;;;4.90;3.63;;;;;12.80;97514.00;;;;5031138;28;20213;-67
2023/08/12 03:58:00;;;;;;;4.40;3.77;;;;;13.00;97513.00;;;;5030727;28;20209;-66
2023/08/12 04:00:49;;;;;;;5.23;3.80;;;;;13.00;97501.00;;;;5031425;28;20202;-67
2023/08/12 04:03:38;;;;;;;7.80;4.13;;;;;13.00;97504.00;;;;5027722;28;20244;-66
2023/08/12 04:06:27;;;;;;;6.53;4.20;;;;;12.90;97512.00;;;;5031979;28;20639;-67
2023/08/12 04:09:16;;;;;;;5.90;4.70;;;;;12.80;97511.00;;;;5030648;28;20581;-66
2023/08/12 04:12:05;;;;;;;4.80;4.30;;;;;13.20;97525.00;;;;5025280;28;20201;-67
2023/08/12 04:14:56;;;;;;;5.87;4.20;;;;;13.00;97520.00;;;;5026939;28;20230;-67
2023/08/12 04:17:45;;;;;;;5.03;4.30;;;;;13.00;97530.00;;;;5027789;28;20581;-67
2023/08/12 04:20:34;;;;;;;4.77;4.30;;;;;13.10;97522.00;;;;5025652;28;20205;-65
2023/08/12 04:23:23;;;;;;;5.27;4.23;;;;;13.20;97530.00;;;;5031017;28;20235;-66
2023/08/12 04:26:12;;;;;;;7.23;4.40;;;;;13.30;97523.00;;;;5030062;28;20225;-66
2023/08/12 04:29:01;;;;;;;6.07;4.10;;;;;12.90;97515.00;;;;5023969;28;20205;-66
2023/08/12 04:31:52;;;;;;;4.57;4.17;;;;;12.90;97526.00;;;;5025962;28;20212;-65
2023/08/12 04:34:41;;;;;;;4.77;4.23;;;;;13.00;97523.00;;;;5025458;28;20279;-67
2023/08/12 04:37:32;;;;;;;4.37;3.93;;;;;13.30;97521.00;;;;5028390;28;20202;-66
2023/08/12 04:40:22;;;;;;;7.13;3.97;;;;;13.50;97520.00;;;;5022580;28;20204;-65
2023/08/12 04:43:13;;;;;;;7.30;4.47;;;;;13.40;97516.00;;;;5018082;28;20235;-66
2023/08/12 04:46:02;;;;;;;4.90;4.40;;;;;13.20;97519.00;;;;5026945;28;20593;-65
2023/08/12 04:48:52;;;;;;;8.00;4.17;;;;;13.30;97518.00;;;;5029524;28;20251;-67
2023/08/12 04:51:41;;;;;;;6.17;4.77;;;;;13.60;97509.00;;;;5029598;28;20251;-67
2023/08/12 04:54:30;;;;;;;5.57;5.03;;;;;13.80;97518.00;;;;5029714;28;20435;-67
2023/08/12 04:57:19;;;;;;;4.40;4.00;;;;;13.60;97516.00;;;;5030281;28;20201;-66
2023/08/12 05:00:09;;;;;;;5.17;4.67;;;;;14.00;97512.00;;;;5029275;28;20212;-67
2023/08/12 05:02:58;;;;;;;5.13;4.10;;;;;13.90;97512.00;;;;5029003;28;20724;-66
2023/08/12 05:05:52;;;;;;;5.03;4.50;;;;;13.60;97515.00;;;;5030237;28;20220;-67
2023/08/12 05:08:41;;;;;;;6.30;4.70;;;;;13.90;97511.00;;;;5029952;28;20291;-66
2023/08/12 05:11:30;;;;;;;6.23;4.47;;;;;14.10;97526.00;;;;5029463;28;20206;-67
2023/08/12 05:14:19;;;;;;;5.00;4.60;;;;;14.20;97518.00;;;;5021779;28;20236;-66
2023/08/12 05:17:08;;;;;;;4.53;4.13;;;;;14.30;97504.00;;;;5029594;28;20689;-67
2023/08/12 05:19:57;;;;;;;6.30;4.57;;;;;14.50;97528.00;;;;5030030;28;20212;-66
2023/08/12 05:22:48;;;;;;;5.00;4.60;;;;;14.70;97528.00;;;;5029735;28;20262;-67
2023/08/12 05:25:37;;;;;;;5.00;4.50;;;;;14.90;97525.00;;;;5024559;28;20240;-66
2023/08/12 05:28:26;;;;;;;4.87;4.30;;;;;14.80;97513.00;;;;5023466;28;20197;-67
2023/08/12 05:31:15;;;;;;;6.90;4.33;;;;;15.10;97514.00;;;;5029225;28;20201;-67
2023/08/12 05:34:04;;;;;;;4.47;4.07;;;;;15.40;97501.00;;;;5028304;28;20229;-67
2023/08/12 05:36:53;;;;;;;5.80;4.57;;;;;15.50;97509.00;;;;5029211;28;20205;-66
2023/08/12 05:39:43;;;;;;;7.60;4.90;;;;;15.70;97517.00;;;;5029674;28;20216;-67
2023/08/12 05:42:32;;;;;;;8.87;4.73;;;;;16.00;97514.00;;;;5026577;28;20193;-67
2023/08/12 05:45:22;;;;;;;6.63;4.67;;;;;16.20;97513.00;;;;5029362;28;20221;-66
2023/08/12 05:48:11;;;;;;;5.90;5.10;;;;;16.40;97501.00;;;;5029569;28;20205;-67
2023/08/12 05:51:00;;;;;;;9.97;4.70;;;;;16.50;97509.00;;;;5028949;28;20209;-67
2023/08/12 05:53:50;;;;;;;5.17;4.67;;;;;16.60;97504.00;;;;5029419;28;20228;-67
2023/08/12 05:56:40;;;;;;;7.50;4.60;;;;;16.50;97502.00;;;;5028640;28;20223;-67
2023/08/12 05:59:29;;;;;;;6.60;4.57;;;;;16.70;97503.00;;;;5028939;28;20194;-67
2023/08/12 06:02:18;;;;;;;5.87;4.63;;;;;16.90;97501.00;;;;5024995;28;20581;-66
2023/08/12 06:05:10;;;;;;;7.30;4.87;;;;;16.90;97501.00;;;;5024746;28;20244;-67
2023/08/12 06:07:59;;;;;;;5.57;4.40;;;;;17.20;97501.00;;;;5025869;28;20213;-67
2023/08/12 06:10:48;;;;;;;10.70;4.70;;;;;17.50;97501.00;;;;5028731;28;20967;-66
2023/08/12 06:13:38;;;;;;;7.77;4.73;;;;;17.70;97493.00;;;;5046008;22;20248;-67
2023/08/12 06:16:29;;;;;;;5.67;5.03;;;;;17.70;97490.00;;;;4995234;28;20237;-66
2023/08/12 06:19:18;;;;;;;8.00;4.87;;;;;17.90;97494.00;;;;4996752;28;20601;-66
2023/08/12 06:22:07;;;;;;;6.43;4.80;;;;;18.00;97496.00;;;;4996806;28;20195;-66
2023/08/12 06:24:56;;;;;;;7.57;4.53;;;;;18.40;97496.00;;;;4989463;28;20222;-67
2023/08/12 06:27:45;;;;;;;7.57;4.63;;;;;18.60;97504.00;;;;4979825;28;20203;-66
2023/08/12 06:30:35;;;;;;;8.33;4.20;;;;;18.90;97499.00;;;;4982235;28;20761;-66
2023/08/12 06:33:24;;;;;;;6.37;4.67;;;;;19.10;97500.00;;;;4986870;28;20222;-66
2023/08/12 06:36:13;;;;;;;8.13;5.87;;;;;19.40;97498.00;;;;4993075;28;20206;-66
2023/08/12 06:39:03;;;;;;;5.97;4.30;;;;;19.80;97499.00;;;;4980680;28;20202;-66
2023/08/12 06:41:52;;;;;;;8.30;4.07;;;;;19.70;97503.00;;;;4981925;28;20233;-66
2023/08/12 06:44:41;;;;;;;5.50;4.03;;;;;20.00;97500.00;;;;4979937;28;20709;-66
2023/08/12 06:47:32;;;;;;;6.50;4.27;;;;;20.20;97499.00;;;;4989086;28;20233;-67
2023/08/12 06:50:21;;;;;;;7.50;4.03;;;;;20.40;97510.00;;;;4981608;28;20194;-67
2023/08/12 06:53:10;;;;;;;4.40;3.77;;;;;20.60;97498.00;;;;4981180;28;20689;-67
2023/08/12 06:55:59;;;;;;;4.33;3.93;;;;;20.80;97502.00;;;;4986983;28;20206;-67
2023/08/12 06:58:48;;;;;;;4.33;3.57;;;;;21.00;97503.00;;;;4991673;28;20213;-68
2023/08/12 07:01:37;;;;;;;8.17;4.50;;;;;20.60;97498.00;;;;4990184;28;20209;-67
2023/08/12 07:04:27;;;;;;;9.10;4.57;;;;;21.20;97497.00;;;;4985752;28;20732;-67
2023/08/12 07:07:16;;;;;;;4.87;4.20;;;;;21.50;97504.00;;;;4980906;28;20219;-67
2023/08/12 07:10:07;;;;;;;3.80;3.37;;;;;21.70;97492.00;;;;4992476;28;20211;-67
2023/08/12 07:12:56;;;;;;;5.80;3.80;;;;;21.70;97509.00;;;;4998102;28;20659;-68
2023/08/12 07:15:45;;;;;;;7.63;3.93;;;;;22.00;97496.00;;;;5002247;28;20234;-67
2023/08/12 07:18:34;;;;;;;6.80;3.93;;;;;22.00;97486.00;;;;4986036;28;20210;-67
2023/08/12 07:21:24;;;;;;;4.10;3.00;;;;;22.40;97492.00;;;;4981358;28;20769;-67
2023/08/12 07:24:13;;;;;;;4.63;3.57;;;;;22.40;97481.00;;;;4986706;28;20218;-66
2023/08/12 07:27:02;;;;;;;7.93;4.20;;;;;22.70;97482.00;;;;4992207;28;20223;-67
2023/08/12 07:29:53;;;;;;;6.83;3.80;;;;;22.80;97476.00;;;;4985323;28;20597;-67
2023/08/12 07:32:42;;;;;;;4.10;3.40;;;;;23.00;97485.00;;;;4989866;28;20210;-67
2023/08/12 07:35:31;;;;;;;3.63;2.73;;;;;23.00;97464.00;;;;4983847;28;20226;-67
2023/08/12 07:38:21;;;;;;;3.87;3.40;;;;;23.10;97468.00;;;;4985330;28;20216;-67
2023/08/12 07:41:10;;;;;;;3.50;3.20;;;;;23.40;97474.00;;;;4989513;28;20579;-67
2023/08/12 07:43:59;;;;;;;4.23;3.37;;;;;23.60;97469.00;;;;4981776;28;20615;-67
2023/08/12 07:46:49;;;;;;;7.30;2.87;;;;;23.60;97471.00;;;;4990274;28;20227;-67
2023/08/12 07:49:38;;;;;;;4.83;3.60;;;;;24.00;97467.00;;;;4993817;28;20202;-67
2023/08/12 07:52:27;;;;;;;6.37;3.40;;;;;24.20;97466.00;;;;4997405;28;20201;-67
2023/08/12 07:55:17;;;;;;;4.77;2.70;;;;;24.20;97464.00;;;;4995200;28;20222;-67
2023/08/12 07:58:06;;;;;;;4.73;3.43;;;;;24.60;97470.00;;;;4991037;28;20217;-67
2023/08/12 08:00:55;;;;;;;4.53;3.47;;;;;24.70;97453.00;;;;5010749;28;20210;-66
2023/08/12 08:03:44;;;;;;;3.80;3.40;;;;;24.90;97460.00;;;;5010160;28;20210;-66
2023/08/12 08:06:33;;;;;;;4.13;2.87;;;;;25.10;97459.00;;;;5005635;28;20227;-67
2023/08/12 08:09:22;;;;;;;4.33;3.13;;;;;25.00;97461.00;;;;5000660;28;20198;-66
2023/08/12 08:12:13;;;;;;;5.43;3.57;;;;;25.30;97457.00;;;;4989424;28;20226;-67
2023/08/12 08:15:03;;;;;;;4.70;3.27;;;;;25.50;97458.00;;;;4998693;28;20229;-66
2023/08/12 08:17:52;;;;;;;3.63;3.07;;;;;25.70;97452.00;;;;4994939;28;20218;-66
2023/08/12 08:20:44;;;;;;;4.73;2.67;;;;;25.80;97446.00;;;;5003811;28;20209;-67
2023/08/12 08:23:33;;;;;;;4.23;3.20;;;;;26.10;97447.00;;;;4987063;28;20263;-67
2023/08/12 08:26:22;;;;;;;4.87;2.80;;;;;26.10;97441.00;;;;4988359;28;20238;-67
2023/08/12 08:29:12;;;;;;;3.33;2.80;;;;;26.10;97445.00;;;;4989185;28;20218;-67
2023/08/12 08:32:01;;;;;;;4.40;2.90;;;;;26.40;97437.00;;;;4982120;28;20613;-67
2023/08/12 08:34:50;;;;;;;3.70;2.70;;;;;26.50;97441.00;;;;4981170;28;20222;-67
2023/08/12 08:37:40;;;;;;;3.90;2.83;;;;;26.70;97435.00;;;;4985682;28;20199;-67
2023/08/12 08:40:29;;;;;;;3.20;2.07;;;;;26.90;97437.00;;;;5003570;28;20596;-66
2023/08/12 08:43:21;;;;;;;6.07;2.97;;;;;27.00;97435.00;;;;4990318;28;20201;-67
2023/08/12 08:46:13;;;;;;;3.63;2.13;;;;;27.20;97433.00;;;;4990558;28;20214;-67
2023/08/12 08:49:02;;;;;;;3.13;2.50;;;;;27.40;97437.00;;;;5003884;28;20211;-67
2023/08/12 08:51:52;;;;;;;2.70;2.50;;;;;27.30;97430.00;;;;4994425;28;20286;-67
2023/08/12 08:54:41;;;;;;;3.83;2.57;;;;;27.60;97433.00;;;;4985571;28;20243;-67
2023/08/12 08:57:30;;;;;;;2.10;1.97;;;;;27.90;97433.00;;;;4991541;28;20206;-67
2023/08/12 09:00:27;;;;;;;3.23;2.10;;;;;27.80;97430.00;;;;4996393;28;20203;-67
2023/08/12 09:03:18;;;;;;;4.93;2.23;;;;;27.40;97423.00;;;;5001342;28;20212;-67
2023/08/12 09:06:07;;;;;;;3.07;2.77;;;;;27.90;97428.00;;;;4998963;28;20210;-67
2023/08/12 09:08:56;;;;;;;4.27;2.40;;;;;28.30;97429.00;;;;4982044;28;20251;-67
2023/08/12 09:11:45;;;;;;;3.23;1.97;;;;;28.30;97433.00;;;;4994626;28;20590;-66
2023/08/12 09:14:34;;;;;;;3.30;2.40;;;;;28.50;97429.00;;;;4992008;28;20238;-66
2023/08/12 09:17:24;;;;;;;3.10;2.17;;;;;28.90;97432.00;;;;4993496;28;20201;-67
2023/08/12 09:20:14;;;;;;;2.23;2.03;;;;;29.10;97432.00;;;;5006475;28;20693;-66
2023/08/12 09:23:04;;;;;;;2.03;1.83;;;;;29.00;97419.00;;;;5001307;28;20566;-67
2023/08/12 09:25:53;;;;;;;3.33;2.23;;;;;29.30;97415.00;;;;5009840;28;20217;-66
2023/08/12 09:28:42;;;;;;;2.10;1.90;;;;;29.50;97428.00;;;;4984569;28;20226;-67
2023/08/12 09:31:32;;;;;;;2.30;2.07;;;;;29.70;97428.00;;;;4984572;28;20211;-67
2023/08/12 09:34:21;;;;;;;3.47;2.50;;;;;29.60;97423.00;;;;4989944;28;20278;-67
2023/08/12 09:37:12;;;;;;;2.60;2.30;;;;;29.90;97423.00;;;;4992608;28;20215;-66
2023/08/12 09:40:05;;;;;;;3.93;2.80;;;;;29.60;97428.00;;;;5000550;28;20219;-66
2023/08/12 09:42:54;;;;;;;4.00;2.53;;;;;29.50;97424.00;;;;5008826;28;20207;-66
2023/08/12 09:45:44;;;;;;;2.93;2.60;;;;;30.00;97422.00;;;;5004411;28;20221;-66
2023/08/12 09:48:33;;;;;;;5.00;3.23;;;;;29.70;97413.00;;;;4999936;28;20228;-67
2023/08/12 09:51:23;;;;;;;2.90;2.60;;;;;29.80;97421.00;;;;4997730;28;20703;-67
2023/08/12 09:54:14;;;;;;;3.90;2.67;;;;;29.90;97421.00;;;;5008508;28;20232;-66
2023/08/12 09:57:06;;;;;;;2.63;2.40;;;;;30.10;97426.00;;;;4999209;28;20285;-66
2023/08/12 09:59:55;;;;;;;3.30;2.37;;;;;30.50;97419.00;;;;5005008;28;20202;-67
2023/08/12 10:02:45;;;;;;;3.33;2.90;;;;;29.90;97416.00;;;;4982568;28;20351;-67
2023/08/12 10:05:35;;;;;;;2.77;2.20;;;;;30.50;97420.00;;;;4981576;28;20784;-66
2023/08/12 10:08:24;;;;;;;3.00;2.63;;;;;30.90;97421.00;;;;4975353;28;20221;-66
2023/08/12 10:11:15;;;;;;;2.20;2.00;;;;;30.20;97412.00;;;;4982870;28;20209;-66
2023/08/12 10:14:05;;;;;;;2.97;2.40;;;;;31.20;97417.00;;;;5006175;28;20244;-67
2023/08/12 10:16:55;;;;;;;2.43;2.23;;;;;31.10;97411.00;;;;4998402;28;20229;-67
2023/08/12 10:19:49;;;;;;;3.93;2.20;;;;;30.10;97405.00;;;;4982630;28;20328;-67
2023/08/12 10:22:40;;;;;;;2.67;2.33;;;;;31.10;97401.00;;;;4983663;28;20219;-66
2023/08/12 10:25:34;;;;;;;2.63;2.10;;;;;30.70;97396.00;;;;5001828;28;20223;-65
2023/08/12 10:28:24;;;;;;;2.80;2.37;;;;;31.30;97391.00;;;;4985374;28;20230;-66
2023/08/12 10:31:14;;;;;;;2.50;2.30;;;;;30.60;97395.00;;;;5004266;28;20206;-67
2023/08/12 10:34:03;;;;;;;2.90;2.67;;;;;31.10;97392.00;;;;4997366;28;20280;-68
2023/08/12 10:36:56;;;;;;;4.47;2.50;;;;;31.70;97387.00;;;;4981377;28;20205;-66
2023/08/12 10:39:49;;;;;;;4.07;2.10;;;;;31.90;97383.00;;;;4992285;28;20267;-67
2023/08/12 10:42:43;;;;;;;3.73;2.43;;;;;32.10;97378.00;;;;4988561;28;20210;-68
2023/08/12 10:45:45;;;;;;;2.37;2.17;;;;;31.60;97375.00;;;;4982624;28;20223;-67
2023/08/12 10:48:34;;;;;;;4.13;2.63;;;;;31.30;97366.00;;;;4986903;28;20791;-66
2023/08/12 10:51:41;;;;;;;5.37;2.17;;;;;32.40;97374.00;;;;4987077;28;20495;-67
2023/08/12 10:54:30;;;;;;;3.00;2.17;;;;;31.90;97360.00;;;;4979277;28;20654;-66
2023/08/12 10:57:19;;;;;;;2.60;2.00;;;;;32.80;97359.00;;;;4983829;28;20220;-66
2023/08/12 11:00:13;;;;;;;3.20;2.10;;;;;32.20;97349.00;;;;4988751;28;20212;-66
2023/08/12 11:03:07;;;;;;;2.67;2.40;;;;;32.00;97348.00;;;;4980571;28;20215;-66
2023/08/12 11:05:56;;;;;;;4.17;2.60;;;;;31.70;97336.00;;;;4995345;28;20203;-68
2023/08/12 11:08:49;;;;;;;4.50;2.50;;;;;30.90;97343.00;;;;5008392;28;20238;-66
2023/08/12 11:11:38;;;;;;;4.83;2.50;;;;;31.50;97345.00;;;;4989339;28;20204;-67
2023/08/12 11:14:27;;;;;;;4.63;2.10;;;;;32.20;97336.00;;;;5000413;28;20242;-66
2023/08/12 11:17:17;;;;;;;2.97;2.60;;;;;30.10;97337.00;;;;4991854;28;20494;-66
2023/08/12 11:20:09;;;;;;;2.93;2.20;;;;;31.10;97327.00;;;;5007789;28;20204;-68
2023/08/12 11:22:59;;;;;;;2.73;1.77;;;;;30.20;97322.00;;;;4998521;28;20230;-70
2023/08/12 11:25:49;;;;;;;2.90;2.60;;;;;31.40;97342.00;;;;4989637;28;20234;-66
2023/08/12 11:28:39;;;;;;;2.53;2.10;;;;;32.60;97336.00;;;;4989755;28;20228;-66
2023/08/12 11:31:28;;;;;;;2.47;2.20;;;;;31.00;97333.00;;;;5001914;28;20214;-67
2023/08/12 11:34:18;;;;;;;2.97;2.27;;;;;31.00;97327.00;;;;4990670;28;20223;-67
2023/08/12 11:37:08;;;;;;;3.53;2.40;;;;;30.30;97316.00;;;;5006066;28;20227;-69
2023/08/12 11:39:57;;;;;;;3.03;2.30;;;;;31.10;97324.00;;;;5004284;28;20199;-66
2023/08/12 11:42:47;;;;;;;2.00;1.80;;;;;31.90;97323.00;;;;4986585;28;20212;-67
2023/08/12 11:45:38;;;;;;;4.43;2.20;;;;;31.70;97311.00;;;;4997136;28;20250;-67
2023/08/12 11:48:29;;;;;;;2.40;2.00;;;;;33.00;97314.00;;;;5000250;28;20227;-66
2023/08/12 11:51:18;;;;;;;2.75;2.30;;;;;34.30;97313.00;;;;5010809;28;20218;-67
2023/08/12 11:54:08;;;;;;;2.90;2.42;;;;;34.70;97306.00;;;;5010423;28;20244;-68
2023/08/12 11:56:57;;;;;;;2.78;2.20;;;;;34.90;97299.00;;;;5010954;28;20213;-67
2023/08/12 11:59:46;;;;;;;2.50;2.30;;;;;34.30;97305.00;;;;4996403;28;20208;-67
2023/08/12 12:02:38;;;;;;;3.03;2.10;;;;;34.40;97296.00;;;;5004682;28;20215;-66
2023/08/12 12:05:30;;;;;;;2.40;2.00;;;;;32.50;97297.00;;;;4998904;28;20708;-68
2023/08/12 12:08:19;;;;;;;2.20;2.00;;;;;32.10;97299.00;;;;5003125;28;20224;-66
2023/08/12 12:11:09;;;;;;;2.38;2.10;;;;;32.40;97283.00;;;;5002314;28;20216;-66
2023/08/12 12:14:02;;;;;;;2.47;2.13;;;;;34.00;97292.00;;;;5012085;22;20240;-89
2023/08/12 12:16:51;;;;;;;3.40;2.28;;;;;33.70;97289.00;;;;5026674;28;20659;-89
2023/08/12 12:19:42;;;;;;;2.20;2.00;;;;;35.10;97294.00;;;;5032099;28;20255;-88
2023/08/12 12:22:33;;;;;;;4.13;2.47;;;;;35.30;97287.00;;;;5018774;28;20236;-89
2023/08/12 12:25:23;;;;;;;2.13;1.92;;;;;36.50;97283.00;;;;5022337;28;20200;-88
2023/08/12 12:28:14;;;;;;;2.40;2.20;;;;;36.80;97291.00;;;;5016437;28;20213;-89
2023/08/12 12:31:03;;;;;;;2.63;1.85;;;;;36.40;97292.00;;;;5025538;28;20201;-88
2023/08/12 12:33:52;;;;;;;5.00;4.03;;;;;37.20;97284.00;;;;5015153;28;20841;-89
2023/08/12 12:36:41;;;;;;;3.35;2.88;;;;;36.20;97281.00;;;;5002594;28;20221;-89
2023/08/12 12:39:31;;;;;;;2.20;2.03;;;;;34.20;97284.00;;;;5024122;28;20207;-91
2023/08/12 12:42:20;;;;;;;2.50;1.92;;;;;35.90;97281.00;;;;5030199;28;20287;-89
2023/08/12 12:45:11;;;;;;;1.95;1.80;;;;;34.60;97279.00;;;;5030232;28;20258;-90
2023/08/12 12:48:00;;;;;;;3.20;2.17;;;;;34.80;97277.00;;;;5025832;28;20202;-89
2023/08/12 12:50:49;;;;;;;2.13;1.88;;;;;34.60;97269.00;;;;5022898;28;20249;-89
2023/08/12 12:53:38;;;;;;;2.33;2.13;;;;;35.70;97277.00;;;;5004382;28;20226;-88
2023/08/12 12:56:27;;;;;;;2.08;1.88;;;;;34.10;97270.00;;;;5004228;28;20207;-90
2023/08/12 12:59:17;;;;;;;2.08;1.80;;;;;35.20;97269.00;;;;5001122;28;20205;-90
2023/08/12 13:02:08;;;;;;;2.10;1.92;;;;;36.80;97265.00;;;;4999661;28;20226;-88
2023/08/12 13:04:57;;;;;;;3.47;1.70;;;;;37.40;97269.00;;;;5023055;28;20678;-88
2023/08/12 13:07:46;;;;;;;2.17;2.00;;;;;33.60;97268.00;;;;5017334;28;20209;-89
2023/08/12 13:10:35;;;;;;;3.25;1.77;;;;;34.40;97261.00;;;;5017267;28;20672;-89
2023/08/12 13:13:24;;;;;;;2.92;2.47;;;;;36.50;97261.00;;;;5021421;28;20605;-88
2023/08/12 13:16:13;;;;;;;3.55;1.90;;;;;36.10;97258.00;;;;4996227;28;20587;-88
2023/08/12 13:19:04;;;;;;;3.53;1.90;;;;;36.30;97269.00;;;;4998090;28;20198;-88
2023/08/12 13:21:53;;;;;;;2.30;2.10;;;;;35.50;97248.00;;;;5008704;28;20248;-89
2023/08/12 13:24:42;;;;;;;2.60;2.40;;;;;36.80;97254.00;;;;5012784;28;20259;-89
2023/08/12 13:27:31;;;;;;;3.58;2.45;;;;;35.40;97255.00;;;;5018003;28;20206;-89
2023/08/12 13:30:20;;;;;;;3.22;1.95;;;;;35.80;97259.00;;;;5021164;28;20232;-90
2023/08/12 13:33:09;;;;;;;3.15;1.77;;;;;34.00;97247.00;;;;5028239;28;20225;-89
2023/08/12 13:36:00;;;;;;;1.95;1.85;;;;;34.90;97248.00;;;;5028989;28;20213;-88
2023/08/12 13:38:49;;;;;;;2.03;1.83;;;;;35.50;97249.00;;;;5001932;28;20550;-88
2023/08/12 13:41:38;;;;;;;2.08;1.75;;;;;35.10;97237.00;;;;5011529;28;20201;-87
2023/08/12 13:44:27;;;;;;;1.88;1.67;;;;;36.50;97244.00;;;;5016523;28;20200;-86
2023/08/12 13:47:16;;;;;;;3.85;2.17;;;;;36.10;97232.00;;;;5011051;28;20210;-87
2023/08/12 13:50:06;;;;;;;2.00;1.90;;;;;35.30;97233.00;;;;5017601;28;20225;-87
2023/08/12 13:52:56;;;;;;;2.80;1.75;;;;;36.80;97236.00;;;;5008997;28;20232;-87
2023/08/12 13:55:45;;;;;;;2.67;1.88;;;;;36.20;97232.00;;;;5010704;28;20566;-87
2023/08/12 13:58:35;;;;;;;4.22;2.50;;;;;37.00;97236.00;;;;5023900;28;20205;-87
2023/08/12 14:01:24;;;;;;;2.33;2.03;;;;;36.30;97232.00;;;;5013011;28;20276;-86
2023/08/12 14:04:13;;;;;;;2.72;1.90;;;;;36.60;97229.00;;;;5027733;28;20209;-86
2023/08/12 14:07:02;;;;;;;3.25;2.63;;;;;37.50;97225.00;;;;5027267;28;20205;-87
2023/08/12 14:09:52;;;;;;;3.13;1.98;;;33.80;63.30;36.00;97222.00;;;;5020384;28;20232;-87